createdAt,value
2018-04-13T00:00:55.715Z,17.70
2018-04-13T00:03:23.945Z,17.70
2018-04-13T00:05:52.177Z,17.70
2018-04-13T00:08:20.401Z,17.60
2018-04-13T00:10:48.630Z,17.60
2018-04-13T00:13:17.621Z,17.70
2018-04-13T00:15:45.877Z,17.70
2018-04-13T00:18:14.109Z,17.70
2018-04-13T00:20:43.105Z,17.70
2018-04-13T00:23:12.101Z,17.70
2018-04-13T00:25:40.318Z,17.60
2018-04-13T00:28:09.338Z,17.60
2018-04-13T00:30:37.554Z,17.60
2018-04-13T00:33:05.785Z,17.50
2018-04-13T00:35:34.773Z,17.60
2018-04-13T00:38:02.996Z,17.60
2018-04-13T00:40:31.982Z,17.60
2018-04-13T00:43:00.220Z,17.60
2018-04-13T00:45:28.435Z,17.70
2018-04-13T00:47:56.698Z,17.70
2018-04-13T00:50:24.916Z,17.70
2018-04-13T00:56:02.784Z,17.50
2018-04-13T00:58:31.097Z,17.20
2018-04-13T01:00:59.329Z,17.50
2018-04-13T01:03:27.556Z,17.20
2018-04-13T01:05:56.555Z,16.90
2018-04-13T01:08:25.546Z,16.30
2018-04-13T01:10:53.794Z,16.30
2018-04-13T01:13:22.040Z,16.30
2018-04-13T01:15:51.044Z,16.90
2018-04-13T01:18:19.267Z,16.90
2018-04-13T01:20:47.509Z,16.50
2018-04-13T01:23:15.769Z,16.30
2018-04-13T01:25:44.066Z,15.60
2018-04-13T01:28:12.317Z,15.20
2018-04-13T01:30:40.552Z,15.00
2018-04-13T01:33:08.769Z,15.00
2018-04-13T01:35:37.810Z,14.90
2018-04-13T01:38:06.027Z,14.90
2018-04-13T01:40:34.245Z,15.70
2018-04-13T01:43:03.253Z,16.50
2018-04-13T01:45:32.258Z,16.00
2018-04-13T01:48:00.503Z,16.00
2018-04-13T01:50:28.735Z,15.80
2018-04-13T01:52:57.722Z,16.50
2018-04-13T01:55:25.958Z,16.50
2018-04-13T01:57:54.225Z,16.10
2018-04-13T02:00:22.466Z,15.90
2018-04-13T02:02:50.745Z,16.20
2018-04-13T02:05:18.989Z,16.20
2018-04-13T02:07:48.006Z,16.00
2018-04-13T02:10:16.273Z,16.00
2018-04-13T02:12:45.285Z,16.80
2018-04-13T02:15:13.502Z,16.70
2018-04-13T02:17:41.741Z,16.40
2018-04-13T02:20:09.981Z,16.40
2018-04-13T02:22:38.228Z,16.90
2018-04-13T02:25:06.433Z,17.10
2018-04-13T02:27:34.672Z,17.10
2018-04-13T02:30:02.921Z,16.80
2018-04-13T02:32:31.177Z,17.10
2018-04-13T02:34:59.400Z,16.70
2018-04-13T02:37:27.667Z,16.20
2018-04-13T02:39:55.874Z,16.00
2018-04-13T02:42:24.098Z,16.70
2018-04-13T02:44:52.356Z,16.90
2018-04-13T02:47:20.586Z,16.90
2018-04-13T02:49:48.860Z,16.70
2018-04-13T02:52:17.105Z,16.40
2018-04-13T02:54:45.348Z,15.90
2018-04-13T02:57:13.586Z,15.70
2018-04-13T02:59:41.813Z,16.00
2018-04-13T03:02:10.082Z,16.40
2018-04-13T03:04:38.323Z,16.40
2018-04-13T03:07:06.536Z,15.90
2018-04-13T03:09:34.780Z,16.00
2018-04-13T03:12:02.997Z,16.50
2018-04-13T03:14:31.982Z,16.70
2018-04-13T03:17:00.245Z,16.70
2018-04-13T03:19:28.481Z,16.10
2018-04-13T03:21:56.731Z,15.90
2018-04-13T03:24:24.957Z,15.80
2018-04-13T03:26:53.956Z,15.50
2018-04-13T03:29:22.956Z,15.50
2018-04-13T03:31:51.956Z,16.20
2018-04-13T03:34:20.182Z,16.20
2018-04-13T03:36:49.131Z,16.00
2018-04-13T03:39:17.353Z,15.80
2018-04-13T03:41:46.385Z,15.40
2018-04-13T03:44:14.647Z,15.50
2018-04-13T03:46:43.660Z,15.30
2018-04-13T03:49:12.645Z,16.00
2018-04-13T03:51:41.657Z,15.80
2018-04-13T03:54:10.706Z,16.00
2018-04-13T03:56:38.945Z,16.00
2018-04-13T03:59:07.171Z,15.90
2018-04-13T04:01:35.408Z,15.60
2018-04-13T04:04:03.641Z,16.20
2018-04-13T04:06:31.878Z,16.20
2018-04-13T04:09:00.098Z,16.00
2018-04-13T04:11:29.090Z,15.60
2018-04-13T04:13:58.111Z,15.70
2018-04-13T04:16:27.176Z,15.40
2018-04-13T04:18:56.104Z,16.30
2018-04-13T04:21:36.157Z,16.30
2018-04-13T04:24:31.227Z,16.30
2018-04-13T04:26:59.443Z,16.00
2018-04-13T04:29:27.673Z,15.50
2018-04-13T04:31:56.665Z,14.80
2018-04-13T04:34:24.920Z,14.80
2018-04-13T04:36:53.154Z,14.80
2018-04-13T04:39:21.373Z,14.90
2018-04-13T04:41:49.639Z,14.40
2018-04-13T04:44:17.848Z,14.30
2018-04-13T04:46:46.088Z,14.20
2018-04-13T04:49:14.333Z,14.40
2018-04-13T04:51:42.627Z,14.20
2018-04-13T04:54:10.956Z,14.20
2018-04-13T04:56:39.168Z,14.50
2018-04-13T04:59:08.187Z,14.50
2018-04-13T05:01:36.438Z,14.60
2018-04-13T05:04:04.701Z,14.60
2018-04-13T05:06:32.934Z,14.80
2018-04-13T05:09:01.937Z,14.60
2018-04-13T05:11:30.928Z,14.40
2018-04-13T05:13:59.172Z,14.40
2018-04-13T05:16:27.411Z,14.50
2018-04-13T05:18:55.633Z,14.30
2018-04-13T05:21:23.886Z,14.10
2018-04-13T05:23:52.158Z,14.80
2018-04-13T05:26:20.389Z,14.70
2018-04-13T05:28:48.610Z,14.60
2018-04-13T05:31:16.871Z,14.80
2018-04-13T05:33:45.905Z,15.80
2018-04-13T05:36:14.182Z,15.70
2018-04-13T05:38:42.465Z,15.40
2018-04-13T05:41:10.719Z,14.90
2018-04-13T05:43:38.941Z,14.50
2018-04-13T05:46:07.229Z,14.80
2018-04-13T05:48:35.418Z,14.50
2018-04-13T05:51:03.635Z,14.80
2018-04-13T05:53:31.861Z,15.50
2018-04-13T05:56:00.082Z,15.50
2018-04-13T05:58:28.307Z,16.10
2018-04-13T06:00:56.548Z,15.90
2018-04-13T06:03:24.773Z,15.90
2018-04-13T06:05:53.785Z,16.60
2018-04-13T06:08:22.027Z,16.50
2018-04-13T06:10:50.261Z,16.70
2018-04-13T06:13:18.530Z,16.40
2018-04-13T06:15:46.773Z,16.60
2018-04-13T06:18:16.466Z,16.10
2018-04-13T06:20:44.705Z,16.10
2018-04-13T06:23:13.786Z,15.90
2018-04-13T06:25:42.074Z,15.90
2018-04-13T06:28:10.301Z,16.60
2018-04-13T06:30:38.526Z,16.90
2018-04-13T06:33:07.618Z,16.60
2018-04-13T06:35:35.839Z,16.90
2018-04-13T06:38:04.070Z,16.80
2018-04-13T06:40:32.309Z,16.50
2018-04-13T06:43:00.566Z,16.50
2018-04-13T06:45:28.785Z,16.80
2018-04-13T06:47:57.010Z,16.90
2018-04-13T06:50:25.235Z,17.00
2018-04-13T06:52:53.520Z,16.90
2018-04-13T06:55:21.725Z,16.60
2018-04-13T06:57:49.978Z,16.80
2018-04-13T07:00:18.999Z,17.00
2018-04-13T07:02:47.222Z,16.90
2018-04-13T07:05:15.461Z,16.90
2018-04-13T07:07:43.805Z,17.10
2018-04-13T07:10:12.294Z,17.10
2018-04-13T07:12:40.515Z,17.10
2018-04-13T07:15:09.519Z,17.10
2018-04-13T07:17:37.741Z,17.10
2018-04-13T07:20:05.999Z,17.10
2018-04-13T07:22:34.997Z,17.00
2018-04-13T07:25:03.993Z,17.20
2018-04-13T07:27:32.257Z,17.20
2018-04-13T07:30:00.480Z,17.30
2018-04-13T07:32:29.469Z,17.10
2018-04-13T07:34:57.818Z,17.10
2018-04-13T07:37:26.355Z,16.90
2018-04-13T07:39:54.365Z,17.10
2018-04-13T07:42:23.368Z,16.70
2018-04-13T07:44:52.375Z,17.00
2018-04-13T07:47:20.582Z,17.00
2018-04-13T07:49:49.025Z,17.10
2018-04-13T07:52:17.024Z,17.10
2018-04-13T07:54:46.023Z,17.20
2018-04-13T07:57:14.270Z,17.20
2018-04-13T07:59:42.554Z,17.10
2018-04-13T08:02:10.772Z,17.20
2018-04-13T08:04:38.981Z,17.20
2018-04-13T08:07:07.973Z,17.10
2018-04-13T08:09:36.200Z,17.10
2018-04-13T08:12:04.412Z,17.20
2018-04-13T08:14:32.637Z,17.30
2018-04-13T08:17:00.860Z,17.20
2018-04-13T08:19:29.086Z,17.20
2018-04-13T08:21:57.318Z,17.30
2018-04-13T08:24:26.309Z,17.20
2018-04-13T08:26:54.999Z,17.20
2018-04-13T08:29:23.212Z,17.10
2018-04-13T08:31:52.207Z,17.20
2018-04-13T08:34:20.433Z,17.20
2018-04-13T08:36:48.962Z,17.20
2018-04-13T08:39:17.162Z,17.30
2018-04-13T08:41:45.398Z,17.40
2018-04-13T08:44:13.665Z,17.40
2018-04-13T08:46:41.885Z,17.40
2018-04-13T08:49:10.303Z,17.40
2018-04-13T08:51:38.329Z,17.40
2018-04-13T08:54:07.333Z,17.50
2018-04-13T08:56:35.537Z,17.40
2018-04-13T08:59:03.749Z,17.40
2018-04-13T09:01:31.967Z,17.40
2018-04-13T09:04:00.203Z,17.40
2018-04-13T09:06:28.538Z,17.40
2018-04-13T09:08:56.657Z,17.30
2018-04-13T09:11:25.645Z,17.40
2018-04-13T09:13:54.046Z,17.40
2018-04-13T09:16:22.269Z,17.40
2018-04-13T09:18:50.495Z,17.40
2018-04-13T09:21:18.713Z,17.40
2018-04-13T09:23:49.324Z,17.40
2018-04-13T09:26:17.566Z,17.40
2018-04-13T09:28:45.831Z,17.40
2018-04-13T09:31:14.041Z,17.40
2018-04-13T09:33:42.305Z,17.40
2018-04-13T09:36:10.543Z,17.40
2018-04-13T09:38:38.776Z,17.40
2018-04-13T09:41:07.004Z,17.40
2018-04-13T09:43:35.306Z,17.50
2018-04-13T09:46:03.556Z,17.50
2018-04-13T09:48:31.841Z,17.40
2018-04-13T09:51:00.113Z,17.30
2018-04-13T09:53:29.429Z,17.40
2018-04-13T09:55:57.648Z,17.30
2018-04-13T09:58:25.874Z,17.30
2018-04-13T10:01:00.092Z,17.30
2018-04-13T10:03:28.317Z,17.20
2018-04-13T10:05:56.545Z,17.20
2018-04-13T10:08:24.785Z,17.10
2018-04-13T10:10:53.011Z,17.10
2018-04-13T10:13:21.267Z,17.10
2018-04-13T10:15:49.485Z,17.10
2018-04-13T10:18:17.747Z,17.10
2018-04-13T10:20:45.975Z,17.10
2018-04-13T10:23:14.209Z,17.10
2018-04-13T10:25:42.432Z,17.20
2018-04-13T10:28:10.676Z,17.30
2018-04-13T10:30:38.901Z,17.30
2018-04-13T10:33:07.897Z,17.30
2018-04-13T10:35:36.893Z,17.30
2018-04-13T10:38:05.915Z,17.40
2018-04-13T10:40:34.901Z,17.40
2018-04-13T10:43:03.115Z,17.40
2018-04-13T10:45:32.099Z,17.40
2018-04-13T10:48:01.079Z,17.30
2018-04-13T10:50:29.352Z,17.30
2018-04-13T10:52:57.607Z,17.20
2018-04-13T10:55:25.829Z,17.20
2018-04-13T10:57:54.102Z,17.20
2018-04-13T11:00:22.337Z,17.10
2018-04-13T11:02:50.663Z,17.10
2018-04-13T11:05:18.885Z,17.00
2018-04-13T11:07:47.142Z,17.00
2018-04-13T11:10:15.443Z,17.00
2018-04-13T11:12:43.622Z,16.90
2018-04-13T11:15:11.853Z,16.90
2018-04-13T11:17:40.125Z,16.90
2018-04-13T11:20:08.369Z,16.90
2018-04-13T11:22:36.598Z,16.90
2018-04-13T11:25:04.842Z,16.90
2018-04-13T11:27:33.844Z,17.10
2018-04-13T11:30:02.826Z,17.10
2018-04-13T11:32:31.068Z,17.10
2018-04-13T11:34:59.386Z,17.10
2018-04-13T11:37:27.629Z,17.10
2018-04-13T11:39:55.870Z,17.20
2018-04-13T11:42:24.100Z,17.30
2018-04-13T11:44:53.113Z,17.30
2018-04-13T11:47:21.380Z,17.30
2018-04-13T11:49:50.414Z,17.40
2018-04-13T11:52:19.389Z,17.40
2018-04-13T11:54:48.393Z,17.40
2018-04-13T11:57:17.439Z,17.30
2018-04-13T11:59:45.664Z,17.30
2018-04-13T12:02:13.897Z,17.30
2018-04-13T12:04:42.113Z,17.30
2018-04-13T12:07:10.344Z,17.30
2018-04-13T12:09:39.333Z,17.40
2018-04-13T12:12:07.536Z,17.40
2018-04-13T12:14:36.533Z,17.40
2018-04-13T12:17:04.753Z,17.40
2018-04-13T12:19:32.992Z,17.40
2018-04-13T12:22:01.238Z,17.40
2018-04-13T12:24:29.465Z,17.50
2018-04-13T12:26:57.709Z,17.50
2018-04-13T12:29:25.967Z,17.50
2018-04-13T12:31:54.181Z,17.50
2018-04-13T12:34:22.483Z,17.50
2018-04-13T12:36:50.722Z,17.50
2018-04-13T12:39:19.005Z,17.50
2018-04-13T12:41:47.226Z,17.50
2018-04-13T12:44:16.243Z,17.50
2018-04-13T12:46:45.225Z,17.50
2018-04-13T12:49:13.442Z,17.50
2018-04-13T12:51:41.690Z,17.50
2018-04-13T12:54:09.907Z,17.50
2018-04-13T12:56:38.206Z,17.50
2018-04-13T12:59:07.130Z,17.50
2018-04-13T13:01:35.360Z,17.50
2018-04-13T13:04:03.602Z,17.40
2018-04-13T13:06:31.829Z,17.50
2018-04-13T13:09:00.050Z,17.50
2018-04-13T13:11:29.043Z,17.50
2018-04-13T13:13:58.042Z,17.50
2018-04-13T13:16:26.277Z,17.50
2018-04-13T13:18:54.522Z,17.50
2018-04-13T13:21:22.773Z,17.50
2018-04-13T13:23:51.072Z,17.50
2018-04-13T13:26:19.269Z,17.50
2018-04-13T13:28:47.558Z,17.50
2018-04-13T13:31:15.824Z,17.50
2018-04-13T13:33:44.045Z,17.50
2018-04-13T13:36:12.289Z,17.50
2018-04-13T13:38:40.510Z,17.50
2018-04-13T13:41:08.741Z,17.50
2018-04-13T13:43:36.949Z,17.50
2018-04-13T13:46:05.174Z,17.50
2018-04-13T13:48:33.415Z,17.50
2018-04-13T13:51:01.650Z,17.50
2018-04-13T13:53:29.869Z,17.50
2018-04-13T13:55:58.101Z,17.50
2018-04-13T13:58:26.324Z,17.50
2018-04-13T14:00:54.565Z,17.50
2018-04-13T14:03:22.796Z,17.50
2018-04-13T14:05:51.089Z,17.50
2018-04-13T14:08:20.170Z,17.50
2018-04-13T14:10:48.398Z,17.40
2018-04-13T14:13:17.435Z,17.50
2018-04-13T14:15:47.047Z,17.60
2018-04-13T14:18:15.269Z,17.50
2018-04-13T14:20:44.261Z,17.50
2018-04-13T14:23:12.492Z,17.50
2018-04-13T14:25:40.713Z,17.50
2018-04-13T14:28:08.953Z,17.50
2018-04-13T14:30:37.172Z,17.50
2018-04-13T14:33:06.170Z,17.50
2018-04-13T14:35:35.153Z,17.50
2018-04-13T14:38:03.375Z,17.50
2018-04-13T14:40:31.661Z,17.50
2018-04-13T14:42:59.865Z,17.50
2018-04-13T14:45:28.087Z,17.50
2018-04-13T14:47:56.309Z,17.50
2018-04-13T14:50:25.294Z,17.50
2018-04-13T14:52:53.541Z,17.50
2018-04-13T14:55:21.786Z,17.50
2018-04-13T14:57:50.054Z,17.60
2018-04-13T15:00:18.297Z,17.50
2018-04-13T15:02:46.528Z,17.60
2018-04-13T15:05:14.757Z,17.50
2018-04-13T15:07:43.733Z,17.60
2018-04-13T15:10:11.976Z,17.50
2018-04-13T15:12:40.193Z,17.60
2018-04-13T15:15:08.435Z,17.50
2018-04-13T15:17:36.665Z,17.50
2018-04-13T15:20:04.892Z,17.50
2018-04-13T15:22:33.115Z,17.50
2018-04-13T15:25:01.373Z,17.50
2018-04-13T15:27:30.379Z,17.50
2018-04-13T15:29:59.393Z,17.50
2018-04-13T15:32:27.616Z,17.50
2018-04-13T15:34:55.838Z,17.50
2018-04-13T15:37:24.166Z,17.50
2018-04-13T15:39:53.176Z,17.50
2018-04-13T15:42:21.513Z,17.50
2018-04-13T15:44:49.742Z,17.50
2018-04-13T15:47:17.976Z,17.50
2018-04-13T15:49:46.217Z,17.50
2018-04-13T15:52:15.193Z,17.50
2018-04-13T15:54:43.445Z,17.60
2018-04-13T15:57:11.668Z,17.50
2018-04-13T15:59:39.903Z,17.60
2018-04-13T16:02:08.156Z,17.50
2018-04-13T16:04:37.163Z,17.50
2018-04-13T16:07:05.390Z,17.50
2018-04-13T16:09:33.618Z,17.50
2018-04-13T16:12:01.846Z,17.50
2018-04-13T16:14:30.870Z,17.60
2018-04-13T16:16:59.095Z,17.50
2018-04-13T16:19:27.325Z,17.60
2018-04-13T16:21:56.325Z,17.60
2018-04-13T16:24:25.316Z,17.50
2018-04-13T16:26:53.546Z,17.50
2018-04-13T16:29:21.772Z,17.50
2018-04-13T16:31:50.181Z,17.60
2018-04-13T16:34:18.411Z,17.50
2018-04-13T16:36:46.667Z,17.50
2018-04-13T16:39:14.882Z,17.50
2018-04-13T16:41:43.108Z,17.60
2018-04-13T16:44:11.380Z,17.60
2018-04-13T16:46:39.600Z,17.50
2018-04-13T16:49:07.849Z,17.60
2018-04-13T16:51:36.114Z,17.50
2018-04-13T16:54:04.328Z,17.50
2018-04-13T16:56:32.561Z,17.50
2018-04-13T16:59:00.825Z,17.40
2018-04-13T17:01:29.028Z,17.40
2018-04-13T17:03:57.241Z,17.40
2018-04-13T17:06:26.250Z,17.50
2018-04-13T17:08:55.258Z,17.30
2018-04-13T17:11:23.519Z,17.30
2018-04-13T17:13:51.773Z,17.30
2018-04-13T17:16:20.049Z,17.30
2018-04-13T17:18:48.296Z,17.40
2018-04-13T17:21:17.310Z,17.50
2018-04-13T17:23:46.297Z,17.40
2018-04-13T17:26:14.530Z,17.40
2018-04-13T17:28:42.783Z,17.30
2018-04-13T17:31:11.768Z,17.40
2018-04-13T17:33:39.999Z,17.40
2018-04-13T17:36:08.252Z,17.40
2018-04-13T17:38:36.478Z,17.50
2018-04-13T17:41:04.717Z,17.60
2018-04-13T17:43:32.960Z,17.60
2018-04-13T17:46:01.170Z,17.60
2018-04-13T17:48:30.170Z,17.50
2018-04-13T17:50:58.405Z,17.50
2018-04-13T17:53:26.640Z,17.50
2018-04-13T17:55:54.881Z,17.20
2018-04-13T17:58:23.870Z,17.10
2018-04-13T18:00:52.159Z,17.10
2018-04-13T18:03:20.415Z,16.10
2018-04-13T18:05:48.622Z,15.90
2018-04-13T18:08:16.876Z,16.10
2018-04-13T18:10:45.090Z,15.70
2018-04-13T18:13:13.322Z,16.20
2018-04-13T18:15:42.324Z,17.40
2018-04-13T18:18:11.308Z,17.30
2018-04-13T18:20:39.524Z,17.30
2018-04-13T18:23:08.514Z,17.50
2018-04-13T18:25:36.737Z,17.50
2018-04-13T18:28:04.961Z,17.50
2018-04-13T18:30:33.198Z,17.20
2018-04-13T18:33:02.206Z,17.50
2018-04-13T18:35:31.211Z,17.40
2018-04-13T18:38:00.206Z,17.20
2018-04-13T18:40:29.197Z,17.00
2018-04-13T18:42:57.422Z,17.00
2018-04-13T18:45:25.649Z,17.10
2018-04-13T18:47:53.873Z,17.10
2018-04-13T18:50:22.893Z,17.00
2018-04-13T18:52:51.901Z,16.80
2018-04-13T18:55:20.901Z,16.70
2018-04-13T18:57:50.044Z,16.80
2018-04-13T19:00:18.258Z,16.80
2018-04-13T19:02:46.465Z,16.40
2018-04-13T19:05:14.793Z,16.10
2018-04-13T19:07:43.009Z,16.70
2018-04-13T19:10:11.272Z,16.60
2018-04-13T19:12:40.254Z,17.20
2018-04-13T19:15:09.246Z,17.40
2018-04-13T19:17:37.465Z,17.40
2018-04-13T19:20:05.694Z,17.40
2018-04-13T19:22:33.910Z,17.50
2018-04-13T19:25:02.128Z,17.40
2018-04-13T19:27:30.345Z,17.30
2018-04-13T19:29:58.582Z,17.40
2018-04-13T19:32:27.574Z,17.50
2018-04-13T19:34:55.790Z,17.50
2018-04-13T19:37:24.804Z,17.30
2018-04-13T19:39:53.002Z,17.30
2018-04-13T19:42:21.238Z,17.40
2018-04-13T19:44:49.497Z,17.40
2018-04-13T19:47:17.728Z,17.50
2018-04-13T19:49:45.945Z,17.50
2018-04-13T19:52:14.167Z,17.20
2018-04-13T19:54:42.405Z,17.30
2018-04-13T19:57:11.398Z,17.50
2018-04-13T19:59:39.635Z,17.40
2018-04-13T20:02:07.866Z,16.90
2018-04-13T20:04:36.100Z,17.00
2018-04-13T20:07:04.334Z,16.90
2018-04-13T20:09:32.561Z,15.70
2018-04-13T20:12:00.797Z,15.10
2018-04-13T20:14:29.029Z,15.20
2018-04-13T20:16:58.018Z,14.70
2018-04-13T20:19:27.068Z,15.10
2018-04-13T20:21:55.284Z,15.10
2018-04-13T20:24:23.510Z,15.70
2018-04-13T20:26:52.544Z,15.70
2018-04-13T20:29:20.780Z,15.70
2018-04-13T20:31:49.004Z,16.70
2018-04-13T20:34:17.258Z,16.30
2018-04-13T20:36:45.499Z,16.50
2018-04-13T20:39:13.715Z,16.60
2018-04-13T20:41:41.949Z,16.90
2018-04-13T20:44:10.178Z,16.90
2018-04-13T20:46:38.426Z,16.10
2018-04-13T20:49:07.422Z,16.70
2018-04-13T20:51:36.414Z,16.70
2018-04-13T20:54:04.650Z,16.70
2018-04-13T20:56:32.890Z,16.20
2018-04-13T20:59:01.109Z,15.60
2018-04-13T21:01:29.340Z,15.60
2018-04-13T21:03:57.572Z,16.10
2018-04-13T21:06:26.565Z,15.10
2018-04-13T21:08:55.574Z,14.60
2018-04-13T21:11:24.578Z,14.40
2018-04-13T21:13:52.809Z,14.30
2018-04-13T21:16:21.049Z,14.30
2018-04-13T21:18:49.304Z,14.30
2018-04-13T21:21:17.530Z,14.40
2018-04-13T21:23:45.757Z,14.80
2018-04-13T21:26:13.989Z,14.70
2018-04-13T21:28:42.219Z,14.50
2018-04-13T21:31:10.454Z,15.10
2018-04-13T21:33:38.681Z,14.90
2018-04-13T21:36:07.671Z,15.30
2018-04-13T21:38:35.909Z,15.20
2018-04-13T21:41:04.129Z,15.90
2018-04-13T21:43:32.357Z,15.60
2018-04-13T21:46:00.600Z,15.10
2018-04-13T21:48:28.821Z,14.70
2018-04-13T21:50:57.812Z,13.90
2018-04-13T21:53:26.057Z,13.90
2018-04-13T21:55:54.297Z,13.90
2018-04-13T21:58:23.310Z,13.90
2018-04-13T22:00:52.322Z,14.00
2018-04-13T22:03:21.316Z,14.10
2018-04-13T22:05:49.568Z,14.10
2018-04-13T22:08:17.797Z,13.80
2018-04-13T22:10:46.115Z,13.70
2018-04-13T22:13:26.318Z,14.00
2018-04-13T22:15:54.549Z,14.30
2018-04-13T22:18:23.542Z,13.80
2018-04-13T22:20:51.814Z,13.80
2018-04-13T22:23:20.040Z,13.90
2018-04-13T22:25:48.298Z,13.70
2018-04-13T22:28:16.517Z,14.70
2018-04-13T22:30:44.757Z,14.40
2018-04-13T22:33:12.989Z,14.30
2018-04-13T22:35:41.991Z,13.90
2018-04-13T22:38:10.990Z,13.90
2018-04-13T22:40:39.992Z,14.30
2018-04-13T22:43:09.002Z,14.10
2018-04-13T22:45:37.998Z,14.10
2018-04-13T22:48:06.230Z,14.10
2018-04-13T22:50:34.458Z,14.00
2018-04-13T22:53:02.678Z,14.00
2018-04-13T22:55:31.708Z,13.90
2018-04-13T22:57:59.962Z,13.90
2018-04-13T23:00:28.169Z,13.50
2018-04-13T23:02:56.401Z,13.40
2018-04-13T23:05:24.629Z,13.60
2018-04-13T23:07:53.629Z,13.50
2018-04-13T23:10:22.631Z,14.00
2018-04-13T23:12:50.913Z,14.00
2018-04-13T23:15:19.157Z,14.10
2018-04-13T23:17:47.407Z,13.90
2018-04-13T23:20:15.623Z,14.10
2018-04-13T23:22:43.852Z,13.90
2018-04-13T23:25:12.081Z,13.70
2018-04-13T23:27:40.311Z,14.40
2018-04-13T23:30:08.537Z,14.70
2018-04-13T23:32:37.540Z,15.80
2018-04-13T23:35:06.530Z,16.20
2018-04-13T23:37:34.762Z,16.20
2018-04-13T23:40:03.022Z,16.30
2018-04-13T23:42:31.242Z,16.70
2018-04-13T23:44:59.470Z,16.70
2018-04-13T23:47:27.692Z,16.20
2018-04-13T23:49:56.686Z,15.30
2018-04-13T23:52:24.925Z,15.30
2018-04-13T23:54:53.153Z,14.70
2018-04-13T23:57:21.396Z,14.40
2018-04-13T23:59:49.638Z,13.90
